sensor_id;sensor_type;location;lat;lon;timestamp;pressure;altitude;pressure_sealevel;temperature;humidity
18850;BME280;4989;48.772;9.154;2023-02-25T00:02:11;96861.84;;;7.54;100.00
18850;BME280;4989;48.772;9.154;2023-02-25T00:07:14;96861.72;;;7.45;100.00
18850;BME280;4989;48.772;9.154;2023-02-25T00:12:16;96867.28;;;7.38;100.00
18850;BME280;4989;48.772;9.154;2023-02-25T00:17:18;96865.13;;;7.32;100.00
18850;BME280;4989;48.772;9.154;2023-02-25T00:22:20;96866.66;;;7.33;100.00
18850;BME280;4989;48.772;9.154;2023-02-25T00:27:24;96852.78;;;7.31;100.00
18850;BME280;4989;48.772;9.154;2023-02-25T00:32:26;96852.66;;;7.22;100.00
18850;BME280;4989;48.772;9.154;2023-02-25T00:37:29;96858.75;;;7.26;100.00
18850;BME280;4989;48.772;9.154;2023-02-25T00:42:31;96870.06;;;7.21;100.00
18850;BME280;4989;48.772;9.154;2023-02-25T00:47:34;96874.81;;;7.17;100.00
18850;BME280;4989;48.772;9.154;2023-02-25T00:52:37;96858.41;;;7.24;100.00
18850;BME280;4989;48.772;9.154;2023-02-25T00:57:39;96866.66;;;7.33;100.00
18850;BME280;4989;48.772;9.154;2023-02-25T01:02:43;96884.66;;;7.53;100.00
18850;BME280;4989;48.772;9.154;2023-02-25T01:07:46;96883.13;;;7.52;100.00
18850;BME280;4989;48.772;9.154;2023-02-25T01:12:48;96892.56;;;8.27;100.00
18850;BME280;4989;48.772;9.154;2023-02-25T01:17:50;96884.25;;;8.60;100.00
18850;BME280;4989;48.772;9.154;2023-02-25T01:22:52;96883.72;;;8.65;100.00
18850;BME280;4989;48.772;9.154;2023-02-25T01:27:57;96893.84;;;8.87;100.00
18850;BME280;4989;48.772;9.154;2023-02-25T01:33:00;96901.28;;;8.95;100.00
18850;BME280;4989;48.772;9.154;2023-02-25T01:38:02;96913.03;;;9.27;98.94
18850;BME280;4989;48.772;9.154;2023-02-25T01:43:05;96924.31;;;9.26;100.00
18850;BME280;4989;48.772;9.154;2023-02-25T01:48:16;96910.28;;;9.05;89.49
18850;BME280;4989;48.772;9.154;2023-02-25T01:53:29;96901.41;;;8.92;100.00
18850;BME280;4989;48.772;9.154;2023-02-25T01:58:34;96887.94;;;9.01;94.70
18850;BME280;4989;48.772;9.154;2023-02-25T02:03:37;96895.38;;;9.23;100.00
18850;BME280;4989;48.772;9.154;2023-02-25T02:08:43;96896.81;;;9.14;98.75
18850;BME280;4989;48.772;9.154;2023-02-25T02:13:53;96908.19;;;8.75;89.26
18850;BME280;4989;48.772;9.154;2023-02-25T02:35:57;96932.38;;;6.65;93.38
18850;BME280;4989;48.772;9.154;2023-02-25T02:46:44;96930.25;;;5.84;98.96
18850;BME280;4989;48.772;9.154;2023-02-25T02:52:22;96928.81;;;5.79;100.00
18850;BME280;4989;48.772;9.154;2023-02-25T02:57:29;96926.09;;;5.79;100.00
18850;BME280;4989;48.772;9.154;2023-02-25T03:02:36;96924.66;;;5.94;100.00
18850;BME280;4989;48.772;9.154;2023-02-25T03:07:45;96928.66;;;6.42;100.00
18850;BME280;4989;48.772;9.154;2023-02-25T03:12:52;96937.53;;;7.08;97.06
18850;BME280;4989;48.772;9.154;2023-02-25T03:18:04;96939.28;;;7.31;100.00
18850;BME280;4989;48.772;9.154;2023-02-25T03:23:14;96945.41;;;7.03;96.12
18850;BME280;4989;48.772;9.154;2023-02-25T03:28:31;96954.00;;;6.65;97.42
18850;BME280;4989;48.772;9.154;2023-02-25T03:39:18;96953.78;;;7.54;100.00
18850;BME280;4989;48.772;9.154;2023-02-25T03:44:29;96948.06;;;8.07;88.94
18850;BME280;4989;48.772;9.154;2023-02-25T03:49:56;96954.91;;;8.11;98.75
18850;BME280;4989;48.772;9.154;2023-02-25T03:55:01;96960.84;;;8.48;100.00
18850;BME280;4989;48.772;9.154;2023-02-25T04:00:11;96955.63;;;8.41;96.09
18850;BME280;4989;48.772;9.154;2023-02-25T04:05:21;96979.53;;;7.88;85.51
18850;BME280;4989;48.772;9.154;2023-02-25T04:10:25;96982.88;;;8.34;99.63
18850;BME280;4989;48.772;9.154;2023-02-25T04:15:27;96987.56;;;8.46;85.48
18850;BME280;4989;48.772;9.154;2023-02-25T04:20:30;96983.38;;;8.70;90.89
18850;BME280;4989;48.772;9.154;2023-02-25T04:25:33;96983.69;;;8.73;99.55
18850;BME280;4989;48.772;9.154;2023-02-25T04:30:36;96982.28;;;8.55;83.78
18850;BME280;4989;48.772;9.154;2023-02-25T04:35:38;96983.47;;;8.41;86.48
18850;BME280;4989;48.772;9.154;2023-02-25T04:40:40;96988.66;;;8.48;90.21
18850;BME280;4989;48.772;9.154;2023-02-25T04:45:42;96989.53;;;8.97;96.40
18850;BME280;4989;48.772;9.154;2023-02-25T04:50:45;96984.91;;;8.71;91.34
18850;BME280;4989;48.772;9.154;2023-02-25T04:55:47;96997.34;;;8.94;91.07
18850;BME280;4989;48.772;9.154;2023-02-25T05:00:49;96990.28;;;8.59;92.09
18850;BME280;4989;48.772;9.154;2023-02-25T05:05:51;97004.34;;;8.41;90.68
18850;BME280;4989;48.772;9.154;2023-02-25T05:10:53;97004.72;;;7.23;84.56
18850;BME280;4989;48.772;9.154;2023-02-25T05:16:05;97002.44;;;7.38;76.31
18850;BME280;4989;48.772;9.154;2023-02-25T05:21:14;97007.25;;;7.14;85.99
18850;BME280;4989;48.772;9.154;2023-02-25T05:26:20;97005.31;;;6.81;78.97
18850;BME280;4989;48.772;9.154;2023-02-25T05:31:23;97002.28;;;6.79;79.13
18850;BME280;4989;48.772;9.154;2023-02-25T05:36:26;97003.56;;;6.91;88.48
18850;BME280;4989;48.772;9.154;2023-02-25T05:41:30;97009.53;;;7.48;82.43
18850;BME280;4989;48.772;9.154;2023-02-25T05:46:32;97002.75;;;7.56;74.19
18850;BME280;4989;48.772;9.154;2023-02-25T05:51:34;97015.28;;;7.01;83.75
18850;BME280;4989;48.772;9.154;2023-02-25T05:56:36;97006.53;;;7.29;85.53
18850;BME280;4989;48.772;9.154;2023-02-25T06:01:39;97016.72;;;6.53;72.52
18850;BME280;4989;48.772;9.154;2023-02-25T06:06:43;97025.41;;;6.24;71.79
18850;BME280;4989;48.772;9.154;2023-02-25T06:11:51;97026.44;;;6.30;73.92
18850;BME280;4989;48.772;9.154;2023-02-25T06:16:53;97031.94;;;5.83;71.70
18850;BME280;4989;48.772;9.154;2023-02-25T06:21:58;97037.94;;;5.47;72.26
18850;BME280;4989;48.772;9.154;2023-02-25T06:27:00;97038.75;;;5.44;73.49
18850;BME280;4989;48.772;9.154;2023-02-25T06:32:02;97055.06;;;5.37;75.63
18850;BME280;4989;48.772;9.154;2023-02-25T06:37:05;97050.59;;;5.27;78.89
18850;BME280;4989;48.772;9.154;2023-02-25T06:42:09;97041.56;;;5.14;79.49
18850;BME280;4989;48.772;9.154;2023-02-25T06:47:11;97052.94;;;5.25;79.42
18850;BME280;4989;48.772;9.154;2023-02-25T06:52:13;97052.66;;;4.92;81.10
18850;BME280;4989;48.772;9.154;2023-02-25T06:57:16;97040.38;;;4.91;82.67
18850;BME280;4989;48.772;9.154;2023-02-25T07:02:19;97056.31;;;5.05;82.88
18850;BME280;4989;48.772;9.154;2023-02-25T07:07:21;97055.50;;;5.09;82.32
18850;BME280;4989;48.772;9.154;2023-02-25T07:12:24;97063.34;;;4.99;81.80
18850;BME280;4989;48.772;9.154;2023-02-25T07:17:26;97055.97;;;5.03;82.16
18850;BME280;4989;48.772;9.154;2023-02-25T07:22:28;97072.13;;;5.03;82.56
18850;BME280;4989;48.772;9.154;2023-02-25T07:27:30;97075.25;;;5.25;81.37
18850;BME280;4989;48.772;9.154;2023-02-25T07:32:32;97076.47;;;5.21;79.52
18850;BME280;4989;48.772;9.154;2023-02-25T07:37:34;97068.50;;;5.14;79.42
18850;BME280;4989;48.772;9.154;2023-02-25T07:42:36;97084.69;;;5.37;78.89
18850;BME280;4989;48.772;9.154;2023-02-25T07:47:39;97077.31;;;5.88;74.66
18850;BME280;4989;48.772;9.154;2023-02-25T07:52:42;97068.28;;;5.99;73.44
18850;BME280;4989;48.772;9.154;2023-02-25T07:57:44;97070.94;;;6.02;72.27
18850;BME280;4989;48.772;9.154;2023-02-25T08:02:46;97073.03;;;6.71;81.32
18850;BME280;4989;48.772;9.154;2023-02-25T08:07:48;97073.97;;;7.17;77.42
18850;BME280;4989;48.772;9.154;2023-02-25T08:12:52;97071.03;;;7.44;72.13
18850;BME280;4989;48.772;9.154;2023-02-25T08:17:54;97067.56;;;7.60;72.85
18850;BME280;4989;48.772;9.154;2023-02-25T08:22:56;97058.78;;;7.72;74.65
18850;BME280;4989;48.772;9.154;2023-02-25T08:28:00;97063.91;;;8.41;68.92
18850;BME280;4989;48.772;9.154;2023-02-25T08:33:03;97068.53;;;8.95;60.64
18850;BME280;4989;48.772;9.154;2023-02-25T08:38:05;97051.22;;;10.88;70.89
18850;BME280;4989;48.772;9.154;2023-02-25T08:43:08;97068.38;;;11.16;65.06
18850;BME280;4989;48.772;9.154;2023-02-25T08:48:11;97060.97;;;8.90;57.25
18850;BME280;4989;48.772;9.154;2023-02-25T08:53:14;97064.66;;;9.22;76.06
18850;BME280;4989;48.772;9.154;2023-02-25T08:58:16;97070.16;;;9.56;64.32
18850;BME280;4989;48.772;9.154;2023-02-25T09:03:19;97062.38;;;10.15;57.85
18850;BME280;4989;48.772;9.154;2023-02-25T09:08:21;97055.47;;;9.67;74.86
18850;BME280;4989;48.772;9.154;2023-02-25T09:13:23;97066.19;;;10.40;60.56
18850;BME280;4989;48.772;9.154;2023-02-25T09:18:26;97074.19;;;9.39;68.99
18850;BME280;4989;48.772;9.154;2023-02-25T09:23:28;97072.00;;;9.59;75.37
18850;BME280;4989;48.772;9.154;2023-02-25T09:28:30;97058.72;;;9.61;58.24
18850;BME280;4989;48.772;9.154;2023-02-25T09:33:34;97063.34;;;8.88;61.27
18850;BME280;4989;48.772;9.154;2023-02-25T09:38:39;97062.50;;;7.45;56.91
18850;BME280;4989;48.772;9.154;2023-02-25T09:43:42;97056.81;;;7.56;54.52
18850;BME280;4989;48.772;9.154;2023-02-25T09:49:36;97052.50;;;8.62;50.84
18850;BME280;4989;48.772;9.154;2023-02-25T09:54:45;97050.13;;;8.90;52.63
18850;BME280;4989;48.772;9.154;2023-02-25T09:59:51;97051.06;;;8.29;50.58
18850;BME280;4989;48.772;9.154;2023-02-25T10:10:50;97057.47;;;9.40;55.17
18850;BME280;4989;48.772;9.154;2023-02-25T10:21:34;97050.63;;;9.96;60.82
18850;BME280;4989;48.772;9.154;2023-02-25T10:26:48;97052.13;;;9.97;55.73
18850;BME280;4989;48.772;9.154;2023-02-25T10:31:57;97060.09;;;10.14;58.10
18850;BME280;4989;48.772;9.154;2023-02-25T10:37:02;97051.97;;;9.79;60.68
18850;BME280;4989;48.772;9.154;2023-02-25T10:42:08;97039.34;;;9.85;71.99
18850;BME280;4989;48.772;9.154;2023-02-25T10:47:14;97039.97;;;9.89;69.60
18850;BME280;4989;48.772;9.154;2023-02-25T10:52:19;97037.03;;;9.61;61.76
18850;BME280;4989;48.772;9.154;2023-02-25T10:57:26;97035.22;;;9.46;58.27
18850;BME280;4989;48.772;9.154;2023-02-25T11:02:30;97036.81;;;9.08;63.32
18850;BME280;4989;48.772;9.154;2023-02-25T11:12:45;97030.09;;;9.60;59.52
18850;BME280;4989;48.772;9.154;2023-02-25T11:17:49;97029.03;;;10.15;60.93
18850;BME280;4989;48.772;9.154;2023-02-25T11:22:53;97032.34;;;9.75;50.53
18850;BME280;4989;48.772;9.154;2023-02-25T11:27:57;97022.31;;;10.41;53.32
18850;BME280;4989;48.772;9.154;2023-02-25T11:33:07;97018.22;;;10.24;55.42
18850;BME280;4989;48.772;9.154;2023-02-25T11:38:32;97026.56;;;10.07;61.09
18850;BME280;4989;48.772;9.154;2023-02-25T11:43:43;97028.47;;;10.20;57.29
18850;BME280;4989;48.772;9.154;2023-02-25T11:48:51;97033.19;;;10.06;61.70
18850;BME280;4989;48.772;9.154;2023-02-25T11:59:38;97024.06;;;9.44;59.47
18850;BME280;4989;48.772;9.154;2023-02-25T12:10:54;97016.84;;;9.97;59.51
18850;BME280;4989;48.772;9.154;2023-02-25T12:28:14;97017.84;;;9.08;62.18
18850;BME280;4989;48.772;9.154;2023-02-25T12:45:24;97042.16;;;7.24;62.79
18850;BME280;4989;48.772;9.154;2023-02-25T13:02:13;97027.84;;;8.44;76.34
18850;BME280;4989;48.772;9.154;2023-02-25T13:24:25;97012.31;;;8.32;76.07
18850;BME280;4989;48.772;9.154;2023-02-25T13:35:46;96999.34;;;8.26;71.85
18850;BME280;4989;48.772;9.154;2023-02-25T13:41:13;97004.94;;;8.19;73.48
18850;BME280;4989;48.772;9.154;2023-02-25T13:52:31;97006.63;;;9.67;64.11
18850;BME280;4989;48.772;9.154;2023-02-25T13:58:10;96994.66;;;9.77;60.92
18850;BME280;4989;48.772;9.154;2023-02-25T14:25:02;96986.34;;;10.37;64.49
18850;BME280;4989;48.772;9.154;2023-02-25T14:30:24;96989.53;;;10.36;64.69
18850;BME280;4989;48.772;9.154;2023-02-25T14:40:44;96978.66;;;10.14;61.93
18850;BME280;4989;48.772;9.154;2023-02-25T14:52:15;96984.69;;;10.18;60.59
18850;BME280;4989;48.772;9.154;2023-02-25T15:03:50;96984.69;;;10.18;59.69
18850;BME280;4989;48.772;9.154;2023-02-25T15:31:23;97037.59;;;9.91;61.22
18850;BME280;4989;48.772;9.154;2023-02-25T15:36:42;97032.66;;;9.77;57.96
18850;BME280;4989;48.772;9.154;2023-02-25T15:42:01;97033.03;;;9.88;60.15
18850;BME280;4989;48.772;9.154;2023-02-25T15:47:17;97029.38;;;9.82;61.25
18850;BME280;4989;48.772;9.154;2023-02-25T15:52:50;97024.34;;;9.58;57.92
18850;BME280;4989;48.772;9.154;2023-02-25T15:57:53;97027.06;;;9.58;69.53
18850;BME280;4989;48.772;9.154;2023-02-25T16:02:59;97032.22;;;9.31;58.31
18850;BME280;4989;48.772;9.154;2023-02-25T16:13:58;97074.19;;;9.39;73.08
18850;BME280;4989;48.772;9.154;2023-02-25T16:19:03;97088.50;;;9.39;75.72
18850;BME280;4989;48.772;9.154;2023-02-25T16:24:12;97092.41;;;9.26;87.85
18850;BME280;4989;48.772;9.154;2023-02-25T16:39:53;97108.44;;;7.62;81.42
18850;BME280;4989;48.772;9.154;2023-02-25T16:44:59;97114.63;;;7.29;79.64
18850;BME280;4989;48.772;9.154;2023-02-25T16:50:13;97120.34;;;7.15;85.18
18850;BME280;4989;48.772;9.154;2023-02-25T16:55:24;97118.75;;;7.18;85.92
18850;BME280;4989;48.772;9.154;2023-02-25T17:00:32;97128.53;;;6.92;79.95
18850;BME280;4989;48.772;9.154;2023-02-25T17:05:36;97136.66;;;6.72;79.94
18850;BME280;4989;48.772;9.154;2023-02-25T17:10:51;97140.34;;;6.81;79.77
18850;BME280;4989;48.772;9.154;2023-02-25T17:15:57;97145.03;;;6.97;82.31
18850;BME280;4989;48.772;9.154;2023-02-25T17:21:23;97143.91;;;6.95;77.32
18850;BME280;4989;48.772;9.154;2023-02-25T17:26:29;97144.13;;;7.04;89.26
18850;BME280;4989;48.772;9.154;2023-02-25T17:31:52;97152.75;;;7.15;89.24
18850;BME280;4989;48.772;9.154;2023-02-25T17:36:58;97171.56;;;7.71;91.21
18850;BME280;4989;48.772;9.154;2023-02-25T17:42:01;97210.53;;;7.74;90.23
18850;BME280;4989;48.772;9.154;2023-02-25T17:47:07;97244.53;;;7.91;90.22
18850;BME280;4989;48.772;9.154;2023-02-25T17:52:24;97243.78;;;7.91;96.31
18850;BME280;4989;48.772;9.154;2023-02-25T17:57:30;97252.88;;;7.64;88.50
18850;BME280;4989;48.772;9.154;2023-02-25T18:07:39;97258.09;;;7.35;94.57
18850;BME280;4989;48.772;9.154;2023-02-25T18:12:47;97252.44;;;7.29;100.00
18850;BME280;4989;48.772;9.154;2023-02-25T18:18:01;97255.06;;;7.33;100.00
18850;BME280;4989;48.772;9.154;2023-02-25T18:23:19;97247.38;;;7.31;95.12
18850;BME280;4989;48.772;9.154;2023-02-25T18:28:22;97262.69;;;7.38;100.00
18850;BME280;4989;48.772;9.154;2023-02-25T18:33:24;97263.19;;;7.33;89.42
18850;BME280;4989;48.772;9.154;2023-02-25T18:38:30;97266.16;;;7.39;96.37
18850;BME280;4989;48.772;9.154;2023-02-25T18:43:33;97260.25;;;7.44;100.00
18850;BME280;4989;48.772;9.154;2023-02-25T18:48:39;97263.72;;;7.44;89.78
18850;BME280;4989;48.772;9.154;2023-02-25T18:53:41;97260.41;;;7.37;96.13
18850;BME280;4989;48.772;9.154;2023-02-25T18:58:44;97274.31;;;7.35;97.54
18850;BME280;4989;48.772;9.154;2023-02-25T19:03:47;97273.16;;;7.16;91.05
18850;BME280;4989;48.772;9.154;2023-02-25T19:08:49;97283.06;;;7.03;90.44
18850;BME280;4989;48.772;9.154;2023-02-25T19:13:51;97280.69;;;7.05;90.86
18850;BME280;4989;48.772;9.154;2023-02-25T19:18:54;97284.75;;;6.73;92.48
18850;BME280;4989;48.772;9.154;2023-02-25T19:23:56;97298.25;;;6.97;100.00
18850;BME280;4989;48.772;9.154;2023-02-25T19:28:59;97293.06;;;7.06;91.51
18850;BME280;4989;48.772;9.154;2023-02-25T19:34:01;97293.38;;;7.08;88.92
18850;BME280;4989;48.772;9.154;2023-02-25T19:39:03;97301.16;;;7.06;90.64
18850;BME280;4989;48.772;9.154;2023-02-25T19:44:07;97321.22;;;7.05;89.79
18850;BME280;4989;48.772;9.154;2023-02-25T19:49:10;97316.91;;;7.11;87.95
18850;BME280;4989;48.772;9.154;2023-02-25T19:54:12;97335.66;;;7.18;87.87
18850;BME280;4989;48.772;9.154;2023-02-25T19:59:14;97338.38;;;7.18;87.54
18850;BME280;4989;48.772;9.154;2023-02-25T20:04:17;97342.84;;;7.05;83.93
18850;BME280;4989;48.772;9.154;2023-02-25T20:09:19;97353.72;;;7.01;83.45
18850;BME280;4989;48.772;9.154;2023-02-25T20:14:21;97357.81;;;7.09;88.32
18850;BME280;4989;48.772;9.154;2023-02-25T20:19:29;97360.38;;;7.17;89.49
18850;BME280;4989;48.772;9.154;2023-02-25T20:24:33;97371.09;;;7.00;86.80
18850;BME280;4989;48.772;9.154;2023-02-25T20:29:36;97375.84;;;7.16;96.87
18850;BME280;4989;48.772;9.154;2023-02-25T20:34:38;97376.81;;;7.26;89.38
18850;BME280;4989;48.772;9.154;2023-02-25T20:39:53;97382.50;;;7.11;86.74
18850;BME280;4989;48.772;9.154;2023-02-25T20:44:57;97393.06;;;7.02;83.53
18850;BME280;4989;48.772;9.154;2023-02-25T20:50:00;97394.75;;;6.93;82.87
18850;BME280;4989;48.772;9.154;2023-02-25T20:55:04;97407.22;;;6.86;85.83
18850;BME280;4989;48.772;9.154;2023-02-25T21:00:10;97414.03;;;6.95;100.00
18850;BME280;4989;48.772;9.154;2023-02-25T21:05:15;97405.34;;;7.07;80.43
18850;BME280;4989;48.772;9.154;2023-02-25T21:10:17;97413.06;;;7.28;95.99
18850;BME280;4989;48.772;9.154;2023-02-25T21:15:19;97412.97;;;7.36;93.26
18850;BME280;4989;48.772;9.154;2023-02-25T21:20:21;97413.91;;;7.25;81.58
18850;BME280;4989;48.772;9.154;2023-02-25T21:25:23;97406.06;;;7.11;100.00
18850;BME280;4989;48.772;9.154;2023-02-25T21:30:26;97420.13;;;6.99;93.62
18850;BME280;4989;48.772;9.154;2023-02-25T21:35:28;97423.78;;;6.88;97.18
18850;BME280;4989;48.772;9.154;2023-02-25T21:40:31;97431.13;;;6.88;85.70
18850;BME280;4989;48.772;9.154;2023-02-25T21:45:34;97431.94;;;6.85;78.64
18850;BME280;4989;48.772;9.154;2023-02-25T21:50:36;97426.00;;;6.70;80.32
18850;BME280;4989;48.772;9.154;2023-02-25T21:55:38;97433.16;;;6.57;81.55
18850;BME280;4989;48.772;9.154;2023-02-25T22:00:41;97448.22;;;6.54;76.01
18850;BME280;4989;48.772;9.154;2023-02-25T22:05:44;97442.13;;;6.47;74.18
18850;BME280;4989;48.772;9.154;2023-02-25T22:10:47;97446.09;;;6.65;78.88
18850;BME280;4989;48.772;9.154;2023-02-25T22:15:49;97450.00;;;6.64;72.29
18850;BME280;4989;48.772;9.154;2023-02-25T22:20:52;97447.78;;;6.56;81.48
18850;BME280;4989;48.772;9.154;2023-02-25T22:25:59;97447.84;;;6.52;72.79
18850;BME280;4989;48.772;9.154;2023-02-25T22:31:02;97450.00;;;6.64;93.59
18850;BME280;4989;48.772;9.154;2023-02-25T22:36:06;97446.91;;;6.66;89.16
18850;BME280;4989;48.772;9.154;2023-02-25T22:46:21;97462.84;;;6.57;85.19
18850;BME280;4989;48.772;9.154;2023-02-25T22:51:33;97470.56;;;6.55;73.45
18850;BME280;4989;48.772;9.154;2023-02-25T22:56:36;97465.03;;;6.38;86.87
18850;BME280;4989;48.772;9.154;2023-02-25T23:01:39;97472.59;;;6.47;76.39
18850;BME280;4989;48.772;9.154;2023-02-25T23:06:41;97474.78;;;6.56;78.35
18850;BME280;4989;48.772;9.154;2023-02-25T23:11:46;97473.41;;;6.44;78.61
18850;BME280;4989;48.772;9.154;2023-02-25T23:16:48;97483.97;;;6.62;76.95
18850;BME280;4989;48.772;9.154;2023-02-25T23:21:50;97494.09;;;6.54;74.29
18850;BME280;4989;48.772;9.154;2023-02-25T23:26:52;97489.88;;;6.80;98.21
18850;BME280;4989;48.772;9.154;2023-02-25T23:31:55;97487.13;;;6.57;73.78
18850;BME280;4989;48.772;9.154;2023-02-25T23:36:57;97485.00;;;6.41;75.10
18850;BME280;4989;48.772;9.154;2023-02-25T23:41:59;97483.81;;;6.46;74.05
18850;BME280;4989;48.772;9.154;2023-02-25T23:47:01;97495.72;;;6.48;82.03
18850;BME280;4989;48.772;9.154;2023-02-25T23:52:03;97504.50;;;6.25;72.89
18850;BME280;4989;48.772;9.154;2023-02-25T23:57:05;97499.00;;;6.32;75.03
